Riceton, Canada
Current Conditions -  °F | °C
As of 1:00 PM on Tuesday 27 Jan 2015 (Local Time) from CYQR Reporting Station
Overcast Overcast  
Wind Chill:   Ceiling: 26000
Heat Index:   Visibility: 15mi
Dew Point: -2°   Wind: 2mph
Humidity: 81%   Direction: 360°N
Pressure: 29.79"   Gusts: NA
Location:  50.1°N, 104.32°W
Report Text: CYQR 271900Z 36002KT 15SM FEW140 SCT200 OVC260 01/M02 A2979 RMK AC1CI3CI5 AC TR SLP115
Loading
Personal Weather Stations






























Interactive Weather Map New forecast layout! Learn more

10-Day Weather Forecast

Advertisements
Track Severe Weather on mobile